Flight Track Log - Related Links

Times and Time Zones

All times are in EDT time to prevent confusion due to time zone crossing. See the UAL4380 flight status page for this flight to view local times or setup timezone preferences in your user account.

Time Position Orientation Groundspeed Altitude Reporting Facility
EDT Latitude Longitude Course Direction KTS MPH feet Rate Location/Type
Thu 06:09:02 AM 35.8686 -78.8114 15° North 150 173 1,600  Level Washington Center
Thu 06:09:56 AM 35.8361 -78.8561 228° Southwest 190 219 4,100 2,625 Climbing Washington Center
Thu 06:11:00 AM 36.0921 -78.5976 15° North  Level Estimated
Thu 06:11:58 AM 35.9489 -78.8583 359° North 274 315 9,300  Level Washington Center
Thu 06:12:00 AM 36.1635 -78.5340 11° North  Level Estimated
Thu 06:12:59 AM 36.0250 -78.8153 25° Northeast 287 330 11,400  Level Washington Center
Thu 06:13:00 AM 36.2349 -78.4704 22° Northeast  Level Estimated
Thu 06:14:00 AM 36.3062 -78.4066 15° North  Level Estimated
Thu 06:14:00 AM 36.1206 -78.7572 26° Northeast 314 361 12,900  Level Washington Center
Thu 06:14:58 AM 36.2075 -78.7017 27° Northeast 366 421 14,800 1,866 Climbing Washington Center
Thu 06:15:59 AM 36.3156 -78.6414 24° Northeast 377 434 16,600 1,488 Climbing Washington Center
Thu 06:16:59 AM 36.4131 -78.5731 29° Northeast 389 448 17,800 1,190 Climbing Washington Center
Thu 06:18:00 AM 36.5111 -78.4967 32° Northeast 405 466 19,000 1,322 Climbing Washington Center
Thu 06:18:57 AM 36.6108 -78.4228 31° Northeast 415 478 20,400 1,475 Climbing Washington Center
Thu 06:19:58 AM 36.7086 -78.3408 34° Northeast 415 478 21,900 1,339 Climbing Washington Center
Thu 06:20:58 AM 36.8086 -78.2639 32° Northeast 421 484 23,100 1,100 Climbing Washington Center
Thu 06:21:58 AM 36.9106 -78.1842 32° Northeast 421 484 24,100 1,000 Climbing Washington Center
Thu 06:22:58 AM 37.0164 -78.1047 31° Northeast 426 490 25,100 1,000 Climbing Washington Center
Thu 06:23:58 AM 37.1203 -78.0219 32° Northeast 426 490 26,100 908 Climbing Washington Center
Thu 06:24:57 AM 37.2242 -77.9392 32° Northeast 432 497 26,900 450 Climbing Washington Center
Thu 06:25:58 AM 37.3322 -77.8564 31° Northeast 437 503 27,000 50 Climbing Washington Center
Thu 06:26:57 AM 37.4422 -77.7681 33° Northeast 448 516 27,000  Level Washington Center
Thu 06:28:00 AM 37.5522 -77.6822 32° Northeast 460 529 27,000  Level Washington Center
Thu 06:29:00 AM 37.6644 -77.5908 33° Northeast 465 535 27,000  Level Washington Center
Thu 06:29:57 AM 37.7764 -77.5019 32° Northeast 465 535 27,000  Level Washington Center
Thu 06:30:59 AM 37.8883 -77.4125 32° Northeast 465 535 27,000  Level Washington Center
Thu 06:31:59 AM 38.0003 -77.3206 33° Northeast 465 535 27,000  Level Washington Center
Thu 06:33:00 AM 38.1014 -77.2408 32° Northeast 468 539 27,000  Level Washington Center
Thu 06:33:59 AM 38.2258 -77.1381 33° Northeast 474 545 27,000  Level Washington Center
Thu 06:34:58 AM 38.3206 -77.0606 33° Northeast 474 545 27,000  Level Washington Center
Thu 06:35:58 AM 38.4342 -76.9700 32° Northeast 474 545 27,000  Level Washington Center
Thu 06:36:59 AM 38.5458 -76.8792 32° Northeast 474 545 27,000  Level Washington Center
Thu 06:38:00 AM 38.6572 -76.7853 33° Northeast 474 545 27,000  Level Washington Center
Thu 06:38:58 AM 38.7606 -76.6806 38° Northeast 474 545 27,000  Level Washington Center
Thu 06:40:00 AM 38.8614 -76.5672 41° Northeast 474 545 27,000  Level Washington Center
Thu 06:40:59 AM 38.9603 -76.4539 42° Northeast 474 545 27,000  Level Washington Center
Thu 06:42:00 AM 39.0592 -76.3375 42° Northeast 469 540 27,000  Level Washington Center
Thu 06:42:57 AM 39.1575 -76.2233 42° Northeast 469 540 27,000  Level Washington Center
Thu 06:44:00 AM 39.2583 -76.1061 42° Northeast 475 547 27,000  Level Washington Center
Thu 06:44:59 AM 39.3586 -75.9889 42° Northeast 480 552 27,000  Level Washington Center
Thu 06:45:59 AM 39.4569 -75.8711 43° Northeast 480 552 27,000 -298 Level Washington Center
Thu 06:47:00 AM 39.5550 -75.7583 42° Northeast 475 547 26,400 -1,513 Descending Washington Center
Thu 06:47:58 AM 39.6553 -75.6372 43° Northeast 475 547 24,000 -2,723 Descending Washington Center
Thu 06:48:59 AM 39.7511 -75.5214 43° Northeast 475 547 21,000 -3,025 Descending Washington Center
Thu 06:49:57 AM 39.8383 -75.4158 43° Northeast 450 518 18,000 -3,102 Descending Washington Center
Thu 06:50:57 AM 39.9300 -75.3075 42° Northeast 405 466 14,900 -2,876 Descending Washington Center
Thu 06:51:58 AM 40.0089 -75.2094 44° Northeast 400 460 12,200 -1,382 Descending Washington Center
Thu 06:54:21 AM 40.1667 -75.0000 45° Northeast 293 337 10,200 -1,064 Descending New York TRACON
Thu 06:55:21 AM 40.2333 -74.9333 37° Northeast 298 343 8,600 -1,158 Descending New York TRACON
Thu 06:56:15 AM 40.2833 -74.8833 37° Northeast 289 333 8,000 -800 Descending New York TRACON
Thu 06:57:21 AM 40.3667 -74.8167 31° Northeast 287 330 7,000 -1,000 Descending New York TRACON
Thu 06:58:15 AM 40.4333 -74.7833 21° North 288 331 6,000 -550 Descending New York TRACON
Thu 06:59:10 AM 40.4833 -74.7333 37° Northeast 289 333 6,000  Level New York TRACON
Thu 07:00:09 AM 40.5667 -74.6833 25° Northeast 285 328 6,000  Level New York TRACON
Thu 07:01:04 AM 40.6167 -74.6333 37° Northeast 286 329 6,000  Level New York TRACON
Thu 07:02:04 AM 40.7000 -74.5833 24° Northeast 289 333 6,000  Level New York TRACON
Thu 07:02:58 AM 40.7500 -74.5667 14° North 280 322 6,000  Level New York TRACON
Thu 07:03:58 AM 40.8333 -74.5333 17° North 272 313 6,000  Level New York TRACON
Thu 07:04:52 AM 40.9000 -74.5333 360° North 244 281 6,000 -389 Level New York TRACON
Thu 07:05:46 AM 40.9500 -74.5333 360° North 239 275 5,300 -526 Descending New York TRACON
Thu 07:06:46 AM 41.0167 -74.5000 21° North 251 289 5,000 -150 Descending New York TRACON
Thu 07:07:46 AM 41.0500 -74.4167 62° Northeast 252 290 5,000  Level New York TRACON
Thu 07:08:40 AM 41.0500 -74.3500 90° East 246 283 5,000 -261 Level New York TRACON
Thu 07:09:41 AM 41.0500 -74.2667 90° East 210 242 4,500 -522 Descending New York TRACON
Thu 07:10:35 AM 41.0500 -74.2000 90° East 204 235 4,000 -263 Descending New York TRACON
Thu 07:11:35 AM 41.0333 -74.1333 108° East 196 226 4,000  Level New York TRACON
Thu 07:12:35 AM 41.0000 -74.0833 131° Southeast 182 209 4,000 -446 Level New York TRACON
Thu 07:13:36 AM 40.9500 -74.0500 153° Southeast 185 213 3,100 -500 Descending New York TRACON
Thu 07:14:35 AM 40.9000 -74.0500 180° South 177 204 3,000 -50 Descending New York TRACON
Thu 07:15:35 AM 40.8500 -74.0667 194° South 172 198 3,000 -158 Level New York TRACON
Thu 07:16:29 AM 40.8167 -74.0833 201° Southwest 171 197 2,700 -684 Descending New York TRACON
Thu 07:17:29 AM 40.7667 -74.1167 207° Southwest 167 192 1,700 -893 Descending New York TRACON
Thu 07:18:30 AM 40.7333 -74.1333 201° Southwest 143 165 900 -787 Descending New York TRACON

Login

Don't have an account? Register now (free) for customized features, flight alerts, and more!